createdAt,value
2023-03-24T00:00:13.865Z,3.00
2023-03-24T00:01:13.863Z,2.50
2023-03-24T00:02:13.899Z,2.60
2023-03-24T00:03:13.943Z,2.60
2023-03-24T00:04:13.878Z,2.60
2023-03-24T00:05:13.846Z,2.80
2023-03-24T00:06:13.866Z,2.60
2023-03-24T00:07:13.841Z,2.70
2023-03-24T00:08:13.842Z,2.70
2023-03-24T00:09:13.834Z,2.60
2023-03-24T00:10:13.831Z,2.50
2023-03-24T00:11:13.853Z,2.80
2023-03-24T00:12:13.827Z,2.90
2023-03-24T00:13:13.823Z,2.70
2023-03-24T00:14:13.817Z,2.80
2023-03-24T00:15:13.818Z,2.90
2023-03-24T00:16:13.913Z,2.60
2023-03-24T00:17:13.819Z,2.70
2023-03-24T00:18:13.804Z,2.70
2023-03-24T00:19:13.801Z,2.80
2023-03-24T00:20:13.796Z,2.60
2023-03-24T00:21:13.809Z,2.80
2023-03-24T00:22:13.813Z,2.70
2023-03-24T00:23:13.790Z,2.70
2023-03-24T00:24:13.790Z,3.10
2023-03-24T00:25:13.788Z,2.60
2023-03-24T00:26:13.781Z,2.60
2023-03-24T00:27:13.843Z,2.80
2023-03-24T00:28:13.784Z,2.60
2023-03-24T00:29:13.799Z,2.80
2023-03-24T00:30:13.818Z,2.60
2023-03-24T00:31:13.836Z,2.70
2023-03-24T00:32:13.766Z,2.50
2023-03-24T00:33:13.769Z,2.90
2023-03-24T00:34:13.763Z,2.40
2023-03-24T00:35:13.773Z,2.60
2023-03-24T00:36:13.803Z,2.60
2023-03-24T00:37:13.756Z,2.40
2023-03-24T00:38:13.769Z,2.70
2023-03-24T00:39:13.751Z,2.40
2023-03-24T00:40:13.906Z,2.70
2023-03-24T00:41:13.749Z,2.50
2023-03-24T00:42:13.740Z,2.50
2023-03-24T00:43:13.740Z,2.30
2023-03-24T00:44:13.731Z,2.40
2023-03-24T00:45:13.735Z,2.60
2023-03-24T00:46:13.747Z,2.50
2023-03-24T00:47:13.727Z,2.40
2023-03-24T00:48:13.726Z,2.50
2023-03-24T00:49:13.723Z,2.40
2023-03-24T00:50:13.722Z,2.70
2023-03-24T00:51:13.722Z,2.60
2023-03-24T00:52:13.716Z,2.30
2023-03-24T00:53:13.740Z,2.60
2023-03-24T00:54:13.737Z,2.60
2023-03-24T00:55:13.705Z,2.80
2023-03-24T00:56:13.701Z,2.60
2023-03-24T00:57:13.755Z,2.50
2023-03-24T00:58:13.698Z,2.80
2023-03-24T00:59:13.713Z,2.80
2023-03-24T01:00:13.701Z,2.70
2023-03-24T01:01:13.726Z,2.60
2023-03-24T01:02:13.695Z,2.70
2023-03-24T01:03:13.757Z,2.90
2023-03-24T01:04:13.681Z,2.80
2023-03-24T01:05:13.671Z,2.80
2023-03-24T01:06:13.673Z,2.90
2023-03-24T01:07:13.673Z,2.90
2023-03-24T01:08:13.667Z,2.90
2023-03-24T01:09:13.658Z,3.00
2023-03-24T01:10:13.676Z,2.90
2023-03-24T01:11:13.651Z,2.80
2023-03-24T01:12:13.647Z,3.10
2023-03-24T01:13:13.644Z,3.10
2023-03-24T01:14:13.643Z,3.20
2023-03-24T01:15:13.640Z,3.50
2023-03-24T01:16:13.697Z,3.30
2023-03-24T01:17:13.632Z,3.30
2023-03-24T01:18:13.633Z,3.40
2023-03-24T01:19:13.627Z,3.40
2023-03-24T01:20:13.625Z,3.10
2023-03-24T01:21:13.622Z,3.50
2023-03-24T01:22:13.621Z,3.50
2023-03-24T01:23:13.617Z,3.70
2023-03-24T01:24:13.677Z,3.80
2023-03-24T01:25:13.609Z,3.60
2023-03-24T01:26:13.624Z,3.70
2023-03-24T01:27:13.603Z,3.80
2023-03-24T01:28:13.600Z,4.00
2023-03-24T01:29:13.599Z,3.70
2023-03-24T01:30:13.600Z,3.60
2023-03-24T01:31:13.616Z,3.70
2023-03-24T01:32:13.591Z,3.90
2023-03-24T01:33:13.591Z,3.60
2023-03-24T01:34:13.580Z,3.80
2023-03-24T01:35:13.580Z,3.80
2023-03-24T01:36:13.602Z,4.20
2023-03-24T01:37:13.573Z,4.00
2023-03-24T01:38:13.569Z,3.90
2023-03-24T01:39:13.570Z,4.00
2023-03-24T01:40:13.821Z,4.20
2023-03-24T01:41:13.560Z,4.30
2023-03-24T01:42:13.584Z,4.30
2023-03-24T01:43:13.555Z,4.20
2023-03-24T01:44:13.554Z,4.30
2023-03-24T01:45:13.550Z,4.20
2023-03-24T01:46:13.576Z,4.20
2023-03-24T01:47:13.546Z,4.60
2023-03-24T01:48:13.542Z,4.10
2023-03-24T01:49:13.536Z,4.10
2023-03-24T01:50:13.538Z,4.30
2023-03-24T01:51:13.533Z,4.10
2023-03-24T01:52:13.538Z,4.10
2023-03-24T01:53:13.534Z,4.10
2023-03-24T01:54:13.529Z,4.30
2023-03-24T01:55:13.530Z,4.30
2023-03-24T01:56:13.520Z,4.00
2023-03-24T01:57:13.565Z,3.80
2023-03-24T01:58:13.533Z,3.90
2023-03-24T01:59:13.510Z,4.10
2023-03-24T02:00:13.516Z,4.30
2023-03-24T02:01:13.529Z,4.10
2023-03-24T02:02:13.511Z,3.90
2023-03-24T02:03:13.506Z,4.30
2023-03-24T02:04:13.505Z,3.90
2023-03-24T02:05:13.498Z,4.30
2023-03-24T02:06:13.493Z,4.20
2023-03-24T02:07:13.490Z,3.90
2023-03-24T02:08:13.484Z,4.00
2023-03-24T02:09:13.491Z,4.20
2023-03-24T02:10:13.492Z,4.30
2023-03-24T02:11:13.476Z,4.30
2023-03-24T02:12:13.473Z,4.20
2023-03-24T02:13:13.468Z,4.40
2023-03-24T02:14:13.488Z,4.00
2023-03-24T02:15:13.467Z,4.30
2023-03-24T02:16:13.522Z,4.20
2023-03-24T02:17:13.460Z,3.90
2023-03-24T02:18:13.462Z,4.10
2023-03-24T02:19:13.452Z,4.30
2023-03-24T02:20:13.461Z,4.30
2023-03-24T02:21:13.462Z,4.10
2023-03-24T02:22:13.449Z,4.00
2023-03-24T02:23:13.441Z,4.00
2023-03-24T02:24:13.450Z,4.20
2023-03-24T02:25:13.435Z,4.60
2023-03-24T02:26:13.438Z,4.30
2023-03-24T02:27:13.429Z,4.20
2023-03-24T02:28:13.432Z,4.20
2023-03-24T02:29:13.423Z,4.30
2023-03-24T02:30:13.443Z,4.40
2023-03-24T02:31:13.429Z,3.90
2023-03-24T02:32:13.435Z,4.10
2023-03-24T02:33:13.414Z,4.00
2023-03-24T02:34:13.415Z,4.00
2023-03-24T02:35:13.406Z,4.00
2023-03-24T02:36:13.447Z,4.10
2023-03-24T02:37:13.405Z,4.10
2023-03-24T02:38:13.402Z,3.90
2023-03-24T02:39:13.396Z,3.90
2023-03-24T02:40:13.750Z,3.90
2023-03-24T02:41:13.390Z,3.90
2023-03-24T02:42:13.387Z,4.10
2023-03-24T02:43:13.382Z,4.00
2023-03-24T02:44:13.379Z,3.90
2023-03-24T02:45:13.381Z,4.10
2023-03-24T02:46:13.881Z,4.40
2023-03-24T02:47:13.370Z,4.20
2023-03-24T02:48:13.381Z,4.10
2023-03-24T02:49:13.360Z,3.90
2023-03-24T02:50:13.359Z,4.20
2023-03-24T02:51:13.377Z,4.10
2023-03-24T02:52:13.358Z,3.90
2023-03-24T02:53:13.349Z,4.30
2023-03-24T02:54:13.346Z,4.40
2023-03-24T02:55:13.349Z,4.20
2023-03-24T02:56:13.350Z,4.20
2023-03-24T02:57:13.345Z,4.50
2023-03-24T02:58:13.338Z,4.50
2023-03-24T02:59:13.333Z,4.40
2023-03-24T03:00:13.335Z,4.30
2023-03-24T03:01:13.380Z,4.60
2023-03-24T03:02:13.343Z,4.50
2023-03-24T03:03:13.318Z,4.50
2023-03-24T03:04:13.372Z,4.80
2023-03-24T03:05:13.319Z,4.60
2023-03-24T03:06:13.314Z,4.20
2023-03-24T03:07:13.307Z,4.50
2023-03-24T03:08:13.325Z,4.50
2023-03-24T03:09:13.302Z,4.70
2023-03-24T03:10:13.310Z,4.80
2023-03-24T03:11:13.298Z,4.70
2023-03-24T03:12:13.293Z,4.50
2023-03-24T03:13:13.288Z,4.50
2023-03-24T03:14:13.288Z,4.70
2023-03-24T03:15:13.284Z,4.50
2023-03-24T03:16:13.306Z,4.40
2023-03-24T03:17:13.279Z,4.70
2023-03-24T03:18:13.307Z,4.40
2023-03-24T03:19:13.274Z,4.50
2023-03-24T03:20:13.273Z,4.50
2023-03-24T03:21:13.275Z,4.40
2023-03-24T03:22:13.267Z,4.50
2023-03-24T03:23:13.264Z,4.60
2023-03-24T03:24:13.262Z,4.70
2023-03-24T03:25:13.277Z,4.70
2023-03-24T03:26:13.261Z,4.50
2023-03-24T03:27:13.255Z,4.80
2023-03-24T03:28:13.253Z,4.80
2023-03-24T03:29:13.258Z,4.40
2023-03-24T03:30:13.255Z,4.50
2023-03-24T03:31:13.267Z,4.40
2023-03-24T03:32:13.255Z,4.30
2023-03-24T03:33:13.260Z,4.30
2023-03-24T03:34:13.261Z,4.20
2023-03-24T03:35:13.233Z,4.30
2023-03-24T03:36:13.251Z,4.00
2023-03-24T03:37:13.229Z,4.20
2023-03-24T03:38:13.228Z,3.80
2023-03-24T03:39:13.223Z,3.80
2023-03-24T03:40:13.373Z,3.70
2023-03-24T03:41:13.219Z,3.50
2023-03-24T03:42:13.217Z,3.50
2023-03-24T03:43:13.213Z,3.60
2023-03-24T03:44:13.213Z,3.40
2023-03-24T03:45:13.212Z,3.30
2023-03-24T03:46:13.228Z,3.30
2023-03-24T03:47:13.201Z,3.40
2023-03-24T03:48:13.238Z,3.50
2023-03-24T03:49:13.199Z,3.30
2023-03-24T03:50:13.213Z,3.20
2023-03-24T03:51:14.484Z,3.20
2023-03-24T03:52:13.189Z,3.10
2023-03-24T03:53:13.184Z,3.20
2023-03-24T03:54:13.190Z,3.10
2023-03-24T03:55:13.204Z,3.10
2023-03-24T03:56:13.176Z,3.10
2023-03-24T03:57:13.184Z,3.10
2023-03-24T03:58:13.177Z,3.10
2023-03-24T03:59:13.169Z,3.10
2023-03-24T04:00:13.165Z,3.00
2023-03-24T04:01:13.166Z,3.00
2023-03-24T04:02:13.187Z,3.00
2023-03-24T04:03:13.207Z,3.10
2023-03-24T04:04:13.154Z,3.00
2023-03-24T04:05:13.151Z,2.90
2023-03-24T04:06:13.223Z,3.10
2023-03-24T04:07:13.144Z,3.10
2023-03-24T04:08:13.159Z,3.00
2023-03-24T04:09:13.149Z,3.00
2023-03-24T04:10:13.152Z,3.00
2023-03-24T04:11:13.133Z,3.10
2023-03-24T04:12:13.130Z,3.00
2023-03-24T04:13:13.138Z,3.20
2023-03-24T04:14:13.133Z,3.00
2023-03-24T04:15:13.123Z,3.30
2023-03-24T04:16:13.168Z,3.10
2023-03-24T04:17:13.139Z,3.00
2023-03-24T04:18:13.115Z,3.10
2023-03-24T04:19:13.116Z,3.10
2023-03-24T04:20:13.111Z,3.10
2023-03-24T04:21:13.105Z,3.20
2023-03-24T04:22:13.182Z,2.80
2023-03-24T04:23:14.424Z,3.30
2023-03-24T04:24:13.106Z,3.00
2023-03-24T04:25:13.110Z,3.10
2023-03-24T04:26:13.097Z,3.10
2023-03-24T04:27:13.093Z,3.30
2023-03-24T04:28:13.093Z,2.90
2023-03-24T04:29:13.094Z,3.10
2023-03-24T04:30:14.867Z,3.40
2023-03-24T04:31:13.115Z,3.30
2023-03-24T04:32:13.081Z,3.40
2023-03-24T04:33:13.083Z,3.70
2023-03-24T04:34:13.075Z,3.50
2023-03-24T04:35:13.074Z,3.80
2023-03-24T04:36:13.089Z,3.80
2023-03-24T04:37:13.074Z,3.70
2023-03-24T04:38:13.098Z,3.90
2023-03-24T04:39:13.059Z,3.90
2023-03-24T04:40:13.061Z,3.90
2023-03-24T04:41:14.648Z,3.80
2023-03-24T04:42:13.055Z,3.50
2023-03-24T04:43:13.047Z,3.60
2023-03-24T04:44:13.047Z,3.70
2023-03-24T04:45:13.056Z,3.90
2023-03-24T04:46:13.086Z,3.50
2023-03-24T04:47:13.037Z,3.90
2023-03-24T04:48:13.088Z,3.80
2023-03-24T04:49:13.036Z,3.40
2023-03-24T04:50:13.038Z,3.60
2023-03-24T04:51:13.033Z,3.50
2023-03-24T04:52:13.023Z,3.10
2023-03-24T04:53:13.020Z,3.50
2023-03-24T04:54:13.043Z,3.00
2023-03-24T04:55:13.017Z,3.20
2023-03-24T04:56:13.013Z,3.30
2023-03-24T04:57:13.076Z,3.20
2023-03-24T04:58:13.017Z,3.20
2023-03-24T04:59:13.074Z,3.00
2023-03-24T05:00:13.014Z,3.00
2023-03-24T05:01:13.034Z,3.00
2023-03-24T05:02:13.001Z,2.90
2023-03-24T05:03:12.992Z,3.00
2023-03-24T05:04:13.021Z,3.20
2023-03-24T05:05:12.993Z,3.20
2023-03-24T05:06:12.985Z,3.00
2023-03-24T05:07:12.978Z,3.20
2023-03-24T05:08:12.980Z,3.40
2023-03-24T05:09:12.973Z,3.10
2023-03-24T05:10:13.014Z,3.40
2023-03-24T05:11:12.971Z,3.30
2023-03-24T05:12:12.987Z,3.20
2023-03-24T05:13:12.972Z,3.30
2023-03-24T05:14:12.967Z,3.20
2023-03-24T05:15:12.961Z,3.30
2023-03-24T05:16:12.994Z,3.40
2023-03-24T05:17:12.953Z,3.50
2023-03-24T05:18:13.016Z,3.20
2023-03-24T05:19:12.952Z,3.20
2023-03-24T05:20:13.003Z,3.20
2023-03-24T05:21:12.940Z,3.10
2023-03-24T05:22:12.937Z,3.10
2023-03-24T05:23:12.946Z,3.20
2023-03-24T05:24:12.927Z,3.10
2023-03-24T05:25:12.928Z,3.20
2023-03-24T05:26:12.941Z,2.80
2023-03-24T05:27:12.921Z,2.80
2023-03-24T05:28:12.920Z,2.70
2023-03-24T05:29:12.923Z,2.70
2023-03-24T05:30:12.920Z,2.60
2023-03-24T05:31:12.968Z,2.70
2023-03-24T05:32:12.915Z,2.60
2023-03-24T05:33:12.940Z,2.30
2023-03-24T05:34:12.900Z,2.30
2023-03-24T05:35:12.897Z,2.30
2023-03-24T05:36:12.927Z,2.30
2023-03-24T05:37:12.894Z,2.30
2023-03-24T05:38:12.889Z,2.20
2023-03-24T05:39:12.891Z,2.30
2023-03-24T05:40:12.881Z,2.30
2023-03-24T05:41:12.891Z,1.90
2023-03-24T05:42:12.896Z,2.30
2023-03-24T05:43:12.874Z,1.90
2023-03-24T05:44:12.869Z,2.10
2023-03-24T05:45:13.067Z,1.90
2023-03-24T05:46:12.892Z,1.80
2023-03-24T05:47:12.868Z,2.00
2023-03-24T05:48:12.856Z,1.90
2023-03-24T05:49:12.856Z,1.80
2023-03-24T05:50:12.856Z,1.90
2023-03-24T05:51:12.850Z,1.80
2023-03-24T05:52:12.845Z,1.70
2023-03-24T05:53:12.846Z,1.60
2023-03-24T05:54:12.847Z,1.80
2023-03-24T05:55:12.856Z,1.60
2023-03-24T05:56:12.855Z,1.80
2023-03-24T05:57:12.836Z,1.80
2023-03-24T05:58:12.884Z,1.70
2023-03-24T05:59:12.829Z,1.60
2023-03-24T06:00:12.818Z,1.60
2023-03-24T06:01:12.819Z,1.50
2023-03-24T06:02:12.867Z,1.60
2023-03-24T06:03:12.951Z,1.90
2023-03-24T06:04:12.860Z,1.50
2023-03-24T06:05:12.822Z,1.60
2023-03-24T06:06:12.800Z,1.50
2023-03-24T06:07:12.806Z,1.90
2023-03-24T06:08:12.802Z,1.90
2023-03-24T06:09:12.795Z,1.90
2023-03-24T06:10:12.786Z,1.80
2023-03-24T06:11:12.788Z,1.60
2023-03-24T06:12:12.786Z,1.80
2023-03-24T06:13:12.802Z,1.60
2023-03-24T06:14:12.801Z,1.50
2023-03-24T06:15:12.773Z,1.80
2023-03-24T06:16:12.866Z,1.70
2023-03-24T06:17:12.766Z,1.40
2023-03-24T06:18:12.761Z,1.60
2023-03-24T06:19:12.766Z,1.60
2023-03-24T06:20:12.759Z,1.60
2023-03-24T06:21:12.753Z,2.00
2023-03-24T06:22:12.749Z,1.70
2023-03-24T06:23:12.769Z,1.70
2023-03-24T06:24:12.742Z,1.90
2023-03-24T06:25:12.741Z,1.70
2023-03-24T06:26:12.738Z,2.00
2023-03-24T06:27:12.732Z,1.80
2023-03-24T06:28:12.726Z,1.60
2023-03-24T06:29:12.725Z,1.70
2023-03-24T06:30:12.746Z,2.00
2023-03-24T06:31:12.756Z,2.10
2023-03-24T06:32:12.715Z,2.00
2023-03-24T06:33:12.748Z,1.90
2023-03-24T06:34:12.710Z,2.00
2023-03-24T06:35:12.712Z,2.20
2023-03-24T06:36:12.755Z,1.80
2023-03-24T06:37:12.700Z,2.10
2023-03-24T06:38:12.695Z,2.10
2023-03-24T06:39:12.714Z,2.00
2023-03-24T06:40:12.691Z,2.20
2023-03-24T06:41:12.687Z,2.40
2023-03-24T06:42:12.681Z,1.90
2023-03-24T06:43:12.686Z,2.00
2023-03-24T06:44:12.682Z,2.20
2023-03-24T06:45:12.832Z,2.10
2023-03-24T06:46:12.735Z,2.00
2023-03-24T06:47:12.667Z,1.90
2023-03-24T06:48:12.708Z,2.10
2023-03-24T06:49:12.660Z,1.80
2023-03-24T06:50:12.654Z,2.30
2023-03-24T06:51:12.661Z,2.10
2023-03-24T06:52:12.654Z,2.20
2023-03-24T06:53:12.645Z,2.00
2023-03-24T06:54:12.639Z,1.90
2023-03-24T06:55:12.636Z,2.10
2023-03-24T06:56:12.630Z,2.10
2023-03-24T06:57:12.648Z,2.00
2023-03-24T06:58:12.634Z,2.20
2023-03-24T06:59:12.622Z,2.40
2023-03-24T07:00:12.624Z,2.20
2023-03-24T07:01:12.620Z,2.10
2023-03-24T07:02:12.655Z,2.40
2023-03-24T07:03:12.670Z,1.90
2023-03-24T07:04:12.603Z,2.40
2023-03-24T07:05:12.599Z,2.00
2023-03-24T07:06:12.598Z,2.00
2023-03-24T07:09:12.588Z,2.00
2023-03-24T07:10:12.581Z,2.10
2023-03-24T07:11:12.591Z,1.90
2023-03-24T07:12:14.432Z,1.90
2023-03-24T07:13:12.576Z,2.00
2023-03-24T07:14:12.573Z,1.80
2023-03-24T07:15:12.573Z,2.20
2023-03-24T07:16:12.678Z,2.20
2023-03-24T07:17:12.567Z,2.00
2023-03-24T07:18:12.592Z,2.10
2023-03-24T07:19:12.562Z,2.00
2023-03-24T07:20:12.546Z,2.10
2023-03-24T07:21:12.544Z,2.10
2023-03-24T07:22:12.539Z,2.10
2023-03-24T07:23:12.541Z,2.10
2023-03-24T07:24:12.533Z,2.00
2023-03-24T07:25:12.532Z,2.30
2023-03-24T07:26:12.530Z,1.90
2023-03-24T07:27:12.528Z,2.20
2023-03-24T07:28:12.524Z,2.00
2023-03-24T07:29:12.517Z,2.30
2023-03-24T07:30:12.518Z,2.10
2023-03-24T07:31:12.562Z,2.10
2023-03-24T07:32:12.510Z,2.30
2023-03-24T07:33:12.738Z,2.00
2023-03-24T07:34:12.516Z,2.20
2023-03-24T07:35:12.518Z,2.10
2023-03-24T07:36:12.533Z,2.20
2023-03-24T07:37:12.493Z,2.20
2023-03-24T07:38:12.493Z,2.40
2023-03-24T07:39:12.489Z,2.60
2023-03-24T07:40:12.498Z,2.60
2023-03-24T07:41:12.480Z,2.50
2023-03-24T07:42:13.184Z,2.40
2023-03-24T07:43:12.474Z,2.20
2023-03-24T07:44:12.468Z,2.40
2023-03-24T07:45:12.922Z,2.50
2023-03-24T07:46:12.577Z,2.70
2023-03-24T07:47:12.470Z,2.10
2023-03-24T07:48:12.531Z,2.40
2023-03-24T07:49:19.314Z,3.00
2023-03-24T07:50:12.520Z,2.50
2023-03-24T07:51:12.452Z,2.70
2023-03-24T07:52:12.443Z,2.80
2023-03-24T07:53:12.448Z,2.70
2023-03-24T07:54:12.458Z,2.60
2023-03-24T07:55:12.439Z,2.80
2023-03-24T07:56:12.436Z,3.20
2023-03-24T07:57:12.493Z,3.30
2023-03-24T07:58:12.424Z,3.10
2023-03-24T07:59:12.498Z,3.20
2023-03-24T08:00:12.422Z,3.30
2023-03-24T08:01:12.426Z,3.20
2023-03-24T08:02:12.452Z,3.10
2023-03-24T08:03:12.549Z,3.20
2023-03-24T08:04:12.619Z,3.70
2023-03-24T08:05:12.408Z,3.20
2023-03-24T08:06:12.424Z,3.80
2023-03-24T08:07:12.410Z,3.70
2023-03-24T08:08:12.399Z,3.70
2023-03-24T08:09:12.408Z,3.40
2023-03-24T08:10:12.401Z,3.90
2023-03-24T08:11:12.390Z,3.60
2023-03-24T08:12:19.952Z,3.80
2023-03-24T08:13:12.455Z,3.50
2023-03-24T08:14:12.382Z,3.80
2023-03-24T08:15:12.374Z,3.90
2023-03-24T08:16:12.402Z,3.50
2023-03-24T08:17:12.371Z,4.10
2023-03-24T08:18:12.442Z,4.00
2023-03-24T08:19:12.365Z,4.20
2023-03-24T08:20:12.360Z,4.10
2023-03-24T08:21:12.359Z,3.90
2023-03-24T08:22:12.371Z,4.00
2023-03-24T08:23:12.357Z,4.00
2023-03-24T08:24:12.345Z,3.90
2023-03-24T08:25:12.354Z,4.00
2023-03-24T08:26:12.341Z,4.20
2023-03-24T08:27:12.343Z,3.70
2023-03-24T08:28:12.332Z,3.60
2023-03-24T08:29:12.337Z,4.10
2023-03-24T08:30:12.347Z,3.80
2023-03-24T08:31:12.459Z,3.70
2023-03-24T08:32:12.360Z,3.80
2023-03-24T08:33:12.690Z,3.40
2023-03-24T08:34:12.334Z,3.70
2023-03-24T08:35:12.331Z,3.50
2023-03-24T08:36:12.393Z,3.40
2023-03-24T08:37:12.309Z,3.50
2023-03-24T08:38:12.357Z,3.10
2023-03-24T08:39:12.315Z,3.10
2023-03-24T08:40:12.307Z,3.30
2023-03-24T08:41:12.301Z,3.00
2023-03-24T08:42:12.299Z,3.30
2023-03-24T08:43:12.296Z,3.20
2023-03-24T08:44:12.293Z,3.10
2023-03-24T08:45:12.293Z,3.30
2023-03-24T08:46:14.048Z,2.90
2023-03-24T08:47:12.281Z,3.10
2023-03-24T08:48:12.370Z,3.10
2023-03-24T08:49:12.278Z,3.10
2023-03-24T08:50:12.283Z,3.20
2023-03-24T08:51:12.274Z,3.40
2023-03-24T08:52:12.270Z,3.20
2023-03-24T08:53:12.270Z,3.40
2023-03-24T08:54:12.290Z,2.80
2023-03-24T08:55:12.261Z,2.90
2023-03-24T08:56:12.267Z,3.00
2023-03-24T08:57:12.259Z,3.00
2023-03-24T08:58:12.259Z,2.80
2023-03-24T08:59:12.251Z,2.90
2023-03-24T09:00:12.258Z,3.10
2023-03-24T09:01:12.273Z,2.70
2023-03-24T09:02:12.242Z,2.80
2023-03-24T09:03:12.288Z,3.10
2023-03-24T09:04:12.244Z,3.30
2023-03-24T09:05:12.235Z,2.80
2023-03-24T09:06:12.294Z,3.00
2023-03-24T09:07:12.232Z,3.30
2023-03-24T09:08:12.224Z,2.90
2023-03-24T09:09:12.239Z,2.80
2023-03-24T09:10:12.318Z,2.80
2023-03-24T09:11:12.221Z,2.90
2023-03-24T09:12:12.213Z,3.10
2023-03-24T09:13:12.214Z,2.90
2023-03-24T09:14:12.218Z,3.20
2023-03-24T09:15:13.370Z,2.80
2023-03-24T09:16:12.221Z,3.40
2023-03-24T09:17:12.200Z,2.90
2023-03-24T09:18:12.199Z,3.10
2023-03-24T09:19:12.197Z,3.10
2023-03-24T09:20:12.191Z,2.90
2023-03-24T09:21:12.202Z,3.20
2023-03-24T09:22:12.193Z,3.20
2023-03-24T09:23:12.188Z,3.20
2023-03-24T09:24:12.185Z,3.30
2023-03-24T09:25:12.186Z,3.00
2023-03-24T09:26:12.199Z,3.20
2023-03-24T09:27:12.187Z,3.20
2023-03-24T09:28:12.173Z,3.30
2023-03-24T09:29:12.168Z,3.50
2023-03-24T09:30:12.172Z,3.00
2023-03-24T09:31:12.202Z,3.40
2023-03-24T09:32:12.160Z,3.60
2023-03-24T09:33:12.157Z,3.10
2023-03-24T09:34:12.154Z,3.50
2023-03-24T09:35:12.155Z,3.00
2023-03-24T09:36:12.202Z,3.10
2023-03-24T09:37:12.146Z,3.40
2023-03-24T09:38:12.182Z,3.50
2023-03-24T09:39:12.139Z,3.40
2023-03-24T09:40:12.138Z,3.60
2023-03-24T09:41:12.133Z,3.40
2023-03-24T09:42:12.153Z,3.60
2023-03-24T09:43:12.129Z,3.50
2023-03-24T09:44:12.134Z,3.60
2023-03-24T09:45:12.127Z,3.30
2023-03-24T09:46:12.143Z,3.60
2023-03-24T09:47:12.117Z,3.70
2023-03-24T09:48:12.184Z,3.60
2023-03-24T09:49:12.112Z,4.10
2023-03-24T09:50:12.113Z,3.80
2023-03-24T09:51:12.105Z,4.10
2023-03-24T09:52:12.104Z,3.80
2023-03-24T09:53:12.102Z,3.70
2023-03-24T09:54:12.099Z,3.80
2023-03-24T09:55:12.099Z,3.90
2023-03-24T09:56:12.103Z,3.90
2023-03-24T09:57:12.141Z,4.00
2023-03-24T09:58:12.117Z,3.40
2023-03-24T09:59:12.092Z,4.10
2023-03-24T10:00:12.087Z,3.90
2023-03-24T10:01:12.159Z,4.30
2023-03-24T10:02:12.081Z,4.20
2023-03-24T10:03:12.109Z,4.10
2023-03-24T10:04:12.175Z,3.90
2023-03-24T10:05:12.075Z,4.00
2023-03-24T10:06:12.078Z,3.90
2023-03-24T10:07:12.078Z,4.20
2023-03-24T10:08:12.066Z,3.70
2023-03-24T10:09:12.061Z,3.70
2023-03-24T10:10:12.066Z,4.20
2023-03-24T10:11:12.054Z,3.70
2023-03-24T10:12:12.052Z,3.80
2023-03-24T10:13:12.050Z,3.70
2023-03-24T10:14:12.068Z,3.20
2023-03-24T10:15:12.048Z,3.40
2023-03-24T10:16:12.060Z,3.70
2023-03-24T10:17:12.038Z,3.50
2023-03-24T10:18:12.100Z,3.40
2023-03-24T10:19:12.038Z,3.30
2023-03-24T10:20:12.034Z,3.40
2023-03-24T10:21:12.030Z,3.30
2023-03-24T10:22:12.059Z,3.40
2023-03-24T10:23:12.020Z,3.70
2023-03-24T10:24:12.018Z,3.40
2023-03-24T10:25:12.013Z,3.20
2023-03-24T10:26:12.020Z,3.30
2023-03-24T10:27:12.008Z,3.30
2023-03-24T10:28:12.005Z,3.30
2023-03-24T10:29:12.007Z,3.10
2023-03-24T10:30:12.025Z,3.20
2023-03-24T10:31:12.349Z,3.40
2023-03-24T10:32:11.994Z,3.20
2023-03-24T10:33:12.043Z,3.10
2023-03-24T10:34:11.992Z,3.00
2023-03-24T10:35:11.988Z,3.60
2023-03-24T10:36:11.995Z,3.20
2023-03-24T10:37:11.982Z,3.30
2023-03-24T10:38:11.980Z,3.60
2023-03-24T10:39:19.066Z,3.20
2023-03-24T10:40:11.980Z,3.20
2023-03-24T10:41:11.977Z,3.30
2023-03-24T10:42:11.973Z,3.10
2023-03-24T10:43:11.962Z,3.60
2023-03-24T10:44:11.966Z,3.30
2023-03-24T10:45:11.989Z,3.20
2023-03-24T10:46:11.991Z,3.60
2023-03-24T10:47:11.951Z,3.30
2023-03-24T10:48:12.031Z,3.20
2023-03-24T10:49:11.949Z,3.20
2023-03-24T10:50:14.967Z,3.10
2023-03-24T10:51:11.939Z,3.10
2023-03-24T10:52:11.936Z,3.10
2023-03-24T10:53:11.930Z,3.20
2023-03-24T10:54:11.950Z,3.20
2023-03-24T10:55:11.947Z,3.00
2023-03-24T10:56:11.923Z,3.00
2023-03-24T10:57:11.998Z,3.00
2023-03-24T10:58:11.916Z,2.80
2023-03-24T10:59:11.919Z,2.60
2023-03-24T11:00:11.912Z,2.90
2023-03-24T11:01:11.950Z,2.70
2023-03-24T11:02:11.939Z,2.30
2023-03-24T11:03:12.036Z,2.70
2023-03-24T11:04:11.896Z,2.60
2023-03-24T11:05:11.947Z,2.50
2023-03-24T11:06:11.892Z,2.60
2023-03-24T11:07:11.887Z,2.40
2023-03-24T11:08:11.885Z,2.40
2023-03-24T11:09:11.890Z,2.60
2023-03-24T11:10:11.884Z,2.70
2023-03-24T11:11:11.872Z,2.50
2023-03-24T11:12:11.871Z,2.60
2023-03-24T11:13:11.871Z,2.50
2023-03-24T11:14:11.863Z,2.40
2023-03-24T11:15:20.371Z,2.70
2023-03-24T11:16:11.897Z,2.50
2023-03-24T11:17:11.858Z,2.20
2023-03-24T11:18:11.879Z,2.40
2023-03-24T11:19:11.847Z,2.40
2023-03-24T11:20:11.847Z,2.60
2023-03-24T11:21:11.841Z,2.80
2023-03-24T11:22:11.842Z,2.90
2023-03-24T11:23:11.839Z,2.80
2023-03-24T11:24:11.831Z,2.30
2023-03-24T11:25:11.836Z,2.30
2023-03-24T11:26:11.832Z,2.40
2023-03-24T11:27:11.827Z,2.40
2023-03-24T11:28:11.821Z,2.50
2023-03-24T11:29:11.818Z,2.30
2023-03-24T11:30:11.816Z,2.70
2023-03-24T11:31:11.844Z,2.40
2023-03-24T11:32:11.811Z,2.80
2023-03-24T11:33:11.805Z,2.40
2023-03-24T11:34:11.830Z,2.40
2023-03-24T11:35:11.900Z,2.80
2023-03-24T11:36:12.275Z,2.00
2023-03-24T11:37:11.803Z,2.60
2023-03-24T11:38:11.807Z,2.60
2023-03-24T11:39:11.801Z,2.40
2023-03-24T11:40:11.790Z,2.20
2023-03-24T11:41:11.789Z,2.30
2023-03-24T11:42:11.800Z,2.30
2023-03-24T11:43:11.778Z,2.40
2023-03-24T11:44:11.777Z,2.10
2023-03-24T11:45:11.778Z,2.20
2023-03-24T11:46:11.826Z,2.30
2023-03-24T11:47:11.770Z,2.30
2023-03-24T11:48:11.808Z,2.30
2023-03-24T11:49:11.764Z,2.40
2023-03-24T11:50:11.852Z,2.60
2023-03-24T11:51:11.765Z,2.40
2023-03-24T11:52:11.758Z,2.20
2023-03-24T11:53:11.762Z,2.10
2023-03-24T11:54:11.759Z,2.80
2023-03-24T11:55:11.750Z,2.50
2023-03-24T11:56:11.747Z,2.40
2023-03-24T11:57:11.822Z,2.00
2023-03-24T11:58:11.742Z,2.30
2023-03-24T11:59:11.744Z,2.30
2023-03-24T12:00:11.733Z,2.20
2023-03-24T12:01:11.738Z,2.20
2023-03-24T12:02:11.731Z,2.10
2023-03-24T12:03:11.781Z,2.00
2023-03-24T12:04:11.739Z,2.20
2023-03-24T12:05:11.730Z,2.00
2023-03-24T12:06:11.752Z,2.20
2023-03-24T12:07:11.713Z,2.30
2023-03-24T12:08:11.713Z,2.40
2023-03-24T12:09:11.721Z,2.40
2023-03-24T12:10:11.709Z,2.10
2023-03-24T12:11:11.705Z,2.50
2023-03-24T12:12:11.703Z,2.10
2023-03-24T12:13:22.148Z,2.10
2023-03-24T12:14:11.696Z,2.20
2023-03-24T12:15:24.686Z,2.10
2023-03-24T12:16:11.729Z,2.40
2023-03-24T12:17:11.688Z,2.10
2023-03-24T12:18:11.693Z,2.20
2023-03-24T12:19:11.688Z,2.40
2023-03-24T12:20:11.682Z,2.40
2023-03-24T12:21:11.682Z,2.00
2023-03-24T12:22:11.697Z,2.00
2023-03-24T12:23:11.674Z,2.60
2023-03-24T12:24:11.671Z,2.30
2023-03-24T12:25:11.686Z,2.50
2023-03-24T12:26:11.668Z,2.30
2023-03-24T12:27:11.663Z,2.10
2023-03-24T12:28:11.667Z,2.50
2023-03-24T12:29:11.672Z,2.30
2023-03-24T12:30:11.657Z,2.30
2023-03-24T12:31:11.694Z,2.20
2023-03-24T12:32:11.649Z,2.40
2023-03-24T12:33:11.644Z,2.20
2023-03-24T12:34:11.651Z,2.60
2023-03-24T12:35:11.638Z,2.20
2023-03-24T12:36:11.674Z,2.50
2023-03-24T12:37:11.636Z,2.20
2023-03-24T12:38:11.663Z,2.60
2023-03-24T12:39:11.635Z,2.20
2023-03-24T12:40:11.677Z,2.30
2023-03-24T12:41:11.625Z,2.40
2023-03-24T12:42:11.627Z,2.10
2023-03-24T12:43:11.620Z,2.60
2023-03-24T12:44:11.626Z,2.40
2023-03-24T12:45:11.620Z,2.60
2023-03-24T12:46:11.637Z,2.10
2023-03-24T12:47:11.611Z,2.40
2023-03-24T12:48:11.624Z,2.70
2023-03-24T12:49:11.626Z,2.40
2023-03-24T12:50:11.616Z,2.60
2023-03-24T12:51:11.629Z,2.50
2023-03-24T12:52:11.601Z,2.40
2023-03-24T12:53:14.077Z,2.50
2023-03-24T12:54:11.614Z,2.10
2023-03-24T12:55:11.592Z,2.50
2023-03-24T12:56:11.601Z,2.30
2023-03-24T12:57:11.667Z,2.30
2023-03-24T12:58:11.587Z,2.50
2023-03-24T12:59:11.587Z,2.30
2023-03-24T13:00:11.594Z,2.20
2023-03-24T13:01:11.615Z,2.30
2023-03-24T13:02:11.594Z,2.50
2023-03-24T13:03:11.659Z,2.30
2023-03-24T13:04:11.574Z,2.20
2023-03-24T13:05:11.566Z,2.30
2023-03-24T13:06:17.150Z,2.40
2023-03-24T13:07:11.572Z,2.20
2023-03-24T13:08:11.566Z,2.50
2023-03-24T13:09:11.560Z,2.50
2023-03-24T13:10:11.580Z,2.20
2023-03-24T13:11:19.194Z,2.20
2023-03-24T13:12:11.554Z,2.30
2023-03-24T13:13:11.548Z,2.20
2023-03-24T13:14:11.548Z,2.20
2023-03-24T13:15:11.546Z,2.30
2023-03-24T13:16:11.661Z,2.40
2023-03-24T13:17:11.539Z,2.50
2023-03-24T13:18:11.693Z,2.30
2023-03-24T13:19:11.535Z,2.50
2023-03-24T13:20:11.530Z,2.20